Latest Weather Observations for Alva Beach

IDQ60801

Issued at 10:02 pm EST Tuesday 1 September 2015 (issued every 30 minutes, with the page automatically refreshed every 10 minutes)

About weather observations | Map of weather stations | Latest weather observations for QLD | Other Formats
Station Details ID: 033295 Name: ALVA BEACH Lat: -19.46 Lon: 147.48 Height: 7.5 m
Data from the previous 72 hours. | See also: Recent months at Alva Beach
Date/Time
EST
Temp
°C
App
Temp
°C
Dew
Point
Rel
Hum
%
Delta-T
°C
Wind Press
QNH
hPa
Press
MSL
hPa
Rain
since 9 am
mm
Dir
 
Spd
km/h
Gust
km/h
Spd
kts
Gust
kts
01/10:00pm 23.7 24.4 21.2 86 1.6 NNE 19 26 10 14 1015.9 1015.9 5.2
01/09:30pm 23.5 24.1 21.0 86 1.6 NE 19 22 10 12 1015.9 1015.9 5.2
01/09:00pm 23.4 24.0 21.1 87 1.5 NE 19 24 10 13 1015.8 1015.8 5.2
01/08:30pm 23.3 23.8 20.8 86 1.6 NE 19 24 10 13 1015.4 1015.4 5.2
01/08:00pm 23.1 23.3 20.6 86 1.6 NE 20 24 11 13 1015.1 1015.1 5.2
01/07:30pm 23.2 23.6 20.9 87 1.5 NE 20 26 11 14 1014.8 1014.8 5.2
01/07:00pm 23.1 23.3 20.6 86 1.6 NE 20 26 11 14 1014.2 1014.2 5.2
01/06:30pm 23.0 22.5 20.0 83 1.9 NE 22 26 12 14 1014.0 1014.0 5.2
01/06:00pm 22.9 22.3 20.4 86 1.6 NE 24 30 13 16 1013.8 1013.8 5.2
01/05:30pm 23.2 21.7 18.5 75 3.0 NE 24 30 13 16 1013.7 1013.7 5.2
01/05:00pm 23.6 22.5 18.7 74 3.1 NE 22 26 12 14 1013.6 1013.6 5.2
01/04:30pm 23.9 22.5 18.8 73 3.2 NE 24 26 13 14 1013.6 1013.6 5.2
01/04:00pm 23.6 22.2 18.7 74 3.1 NE 24 28 13 15 1013.6 1013.6 5.2
01/03:30pm 23.9 22.4 19.4 76 2.9 NE 26 30 14 16 1013.6 1013.6 5.2
01/03:00pm 23.8 24.1 19.7 78 2.6 NE 17 20 9 11 1013.9 1013.9 5.2
01/02:30pm 23.8 23.9 19.1 75 3.0 NE 17 22 9 12 1014.3 1014.3 5.2
01/02:00pm 24.0 24.0 19.7 77 2.8 NE 19 20 10 11 1014.7 1014.7 5.0
01/01:30pm 23.3 23.8 20.1 82 2.1 NE 17 20 9 11 1015.2 1015.2 5.0
01/01:00pm 23.1 24.4 20.8 87 1.5 NE 15 17 8 9 1015.6 1015.6 5.0
01/12:30pm 22.2 23.5 20.8 92 0.9 NNE 15 20 8 11 1015.9 1015.9 5.0
01/12:00pm 22.1 24.8 20.2 89 1.2 N 6 13 3 7 1016.7 1016.7 3.4
01/11:30am 22.7 24.0 18.5 77 2.6 NNW 9 17 5 9 1017.2 1017.2 0.2
01/11:00am 23.7 24.3 19.4 77 2.7 ENE 15 19 8 10 1017.4 1017.4 0.2
01/10:30am 24.5 25.1 18.7 70 3.7 E 13 20 7 11 1017.6 1017.6 0.0
01/10:00am 24.4 24.5 19.2 73 3.3 E 17 20 9 11 1017.8 1017.8 0.0
01/09:30am 24.6 24.9 19.7 74 3.2 E 17 20 9 11 1017.8 1017.8 0.0
01/09:00am 23.8 24.1 19.5 77 2.8 E 17 24 9 13 1017.6 1017.6 0.0
01/08:30am 23.4 23.8 19.1 77 2.7 E 15 22 8 12 1017.3 1017.3 0.0
01/08:00am 24.7 25.6 19.3 72 3.5 E 13 17 7 9 1017.1 1017.1 0.0
01/07:30am 23.6 24.5 19.3 77 2.7 E 13 19 7 10 1016.6 1016.6 0.0
01/07:00am 22.9 23.7 19.1 79 2.4 E 13 20 7 11 1016.3 1016.3 0.0
01/06:30am 22.8 23.7 19.2 80 2.3 E 13 17 7 9 1016.1 1016.1 0.0
01/06:00am 22.7 23.1 19.1 80 2.3 E 15 20 8 11 1015.5 1015.5 0.0
01/05:30am 22.8 22.9 19.2 80 2.3 E 17 20 9 11 1015.2 1015.2 0.0
01/05:00am 22.7 23.1 18.9 79 2.4 ENE 15 20 8 11 1015.2 1015.2 0.0
01/04:30am 22.7 22.7 18.9 79 2.4 ENE 17 20 9 11 1014.9 1014.9 0.0
01/04:00am 22.7 22.6 18.7 78 2.5 E 17 20 9 11 1014.9 1014.9 0.0
01/03:30am 22.9 23.3 18.9 78 2.5 E 15 19 8 10 1015.0 1015.0 0.0
01/03:00am 22.9 23.5 18.7 77 2.6 E 13 19 7 10 1015.1 1015.1 0.0
01/02:30am 23.0 23.6 18.7 77 2.7 E 13 19 7 10 1015.0 1015.0 0.0
01/02:00am 23.0 23.6 18.7 77 2.7 E 13 17 7 9 1015.2 1015.2 0.0
01/01:30am 23.1 23.0 18.8 77 2.7 ENE 17 22 9 12 1015.3 1015.3 0.0
01/01:00am 23.1 22.7 18.8 77 2.7 ENE 19 24 10 13 1015.5 1015.5 0.0
01/12:30am 23.2 22.5 18.7 76 2.8 ENE 20 24 11 13 1015.6 1015.6 0.0
01/12:00am 23.4 22.6 18.5 74 3.1 ENE 20 26 11 14 1015.8 1015.8 0.0
 
Date/Time
EST
Temp
°C
App
Temp
°C
Dew
Point
Rel
Hum
%
Delta-T
°C
Wind Press
QNH
hPa
Press
MSL
hPa
Rain
since 9 am
mm
Dir
 
Spd
km/h
Gust
km/h
Spd
kts
Gust
kts
31/11:30pm 23.4 22.6 18.5 74 3.1 ENE 20 26 11 14 1016.1 1016.1 0.0
31/11:00pm 23.4 22.7 18.3 73 3.2 ENE 19 24 10 13 1016.0 1016.0 0.0
31/10:30pm 23.4 23.3 18.7 75 3.0 ENE 17 22 9 12 1016.0 1016.0 0.0
31/10:00pm 23.4 22.9 18.7 75 3.0 ENE 19 24 10 13 1015.9 1015.9 0.0
31/09:30pm 23.2 22.6 18.5 75 3.0 ENE 19 22 10 12 1015.9 1015.9 0.0
31/09:00pm 23.3 22.6 18.6 75 3.0 ENE 20 24 11 13 1015.8 1015.8 0.0
31/08:30pm 23.2 22.5 18.3 74 3.1 ENE 19 20 10 11 1015.5 1015.5 0.0
31/08:00pm 23.1 22.4 18.2 74 3.1 NE 19 20 10 11 1015.3 1015.3 0.0
31/07:30pm 23.1 22.7 18.0 73 3.2 NE 17 20 9 11 1014.9 1014.9 0.0
31/07:00pm 23.1 22.7 18.0 73 3.2 NE 17 20 9 11 1014.5 1014.5 0.0
31/06:30pm 23.2 22.4 18.1 73 3.2 NE 19 22 10 12 1013.9 1013.9 0.0
31/06:00pm 23.4 22.5 18.1 72 3.3 NE 20 24 11 13 1013.6 1013.6 0.0
31/05:30pm 23.5 22.6 18.2 72 3.3 NE 20 24 11 13 1013.6 1013.6 0.0
31/05:00pm 23.9 22.7 18.3 71 3.5 NE 22 26 12 14 1013.4 1013.4 0.0
31/04:30pm 24.0 23.1 18.2 70 3.6 NE 20 26 11 14 1013.4 1013.4 0.0
31/04:00pm 24.9 23.8 18.6 68 4.0 NE 22 26 12 14 1013.3 1013.3 0.0
31/03:30pm 24.9 22.9 18.3 66 4.2 NE 26 30 14 16 1013.1 1013.1 0.0
31/03:00pm 25.1 23.9 19.2 70 3.8 NE 24 28 13 15 1013.4 1013.4 0.0
31/02:30pm 24.6 22.8 18.8 70 3.7 ENE 26 30 14 16 1013.9 1013.9 0.0
31/02:00pm 24.8 23.5 19.0 70 3.7 ENE 24 30 13 16 1014.4 1014.4 0.0
31/01:30pm 24.7 23.1 18.4 68 4.0 ENE 24 28 13 15 1014.8 1014.8 0.0
31/01:00pm 25.4 25.1 19.1 68 4.0 ENE 19 26 10 14 1015.1 1015.1 0.0
31/12:30pm 25.3 25.1 19.4 70 3.8 E 19 24 10 13 1015.4 1015.4 0.0
31/12:00pm 25.5 25.5 18.9 67 4.2 E 17 22 9 12 1015.8 1015.8 0.0
31/11:30am 25.7 26.0 19.6 69 3.9 E 17 24 9 13 1016.3 1016.3 0.0
31/11:00am 24.9 24.9 19.0 69 3.8 E 17 20 9 11 1016.7 1016.7 0.0
31/10:30am 25.7 25.5 18.6 65 4.5 ESE 17 22 9 12 1017.0 1017.0 0.0
31/10:00am 25.6 25.9 19.7 70 3.8 E 17 24 9 13 1017.4 1017.4 0.0
31/09:30am 25.4 26.2 19.1 68 4.0 ESE 13 20 7 11 1017.2 1017.2 0.0
31/09:00am 23.7 24.9 19.0 75 3.0 ESE 11 17 6 9 1017.1 1017.1 0.0
31/08:30am 24.4 26.2 19.5 74 3.1 ESE 9 15 5 8 1016.9 1016.9 0.0
31/08:00am 22.6 24.5 18.6 78 2.5 S 6 9 3 5 1016.6 1016.6 0.0
31/07:30am 21.7 23.9 19.6 88 1.3 SSW 7 11 4 6 1016.4 1016.4 0.0
31/07:00am 20.5 22.8 19.5 94 0.6 SSW 6 7 3 4 1016.0 1016.0 0.0
31/06:30am 19.5 21.2 18.5 94 0.6 S 7 9 4 5 1015.7 1015.7 0.0
31/06:00am 19.7 21.5 18.7 94 0.6 S 7 9 4 5 1015.5 1015.5 0.0
31/05:30am 19.5 21.1 18.3 93 0.7 SSW 7 9 4 5 1015.2 1015.2 0.0
31/05:00am 20.0 22.0 18.7 92 0.8 S 6 7 3 4 1015.0 1015.0 0.0
31/04:30am 20.6 23.6 19.3 92 0.8 SSE 2 6 1 3 1014.8 1014.8 0.0
31/04:00am 20.5 22.7 19.2 92 0.8 S 6 7 3 4 1015.0 1015.0 0.0
31/03:30am 20.5 23.0 19.0 91 0.9 S 4 7 2 4 1015.1 1015.1 0.0
31/03:00am 20.8 23.0 19.1 90 1.1 SSW 6 7 3 4 1015.3 1015.3 0.0
31/02:30am 21.0 23.3 18.6 86 1.5 S 4 7 2 4 1015.5 1015.5 0.0
31/02:00am 21.9 24.1 18.3 80 2.2 E 4 9 2 5 1015.7 1015.7 0.0
31/01:30am 22.4 24.4 18.8 80 2.3 E 6 9 3 5 1015.8 1015.8 0.0
31/01:00am 22.9 24.1 19.1 79 2.4 ENE 11 13 6 7 1015.9 1015.9 0.0
31/12:30am 23.0 24.9 19.0 78 2.5 ENE 7 11 4 6 1016.0 1016.0 0.0
31/12:00am 23.1 24.4 19.3 79 2.4 ENE 11 13 6 7 1016.2 1016.2 0.0
 
Date/Time
EST
Temp
°C
App
Temp
°C
Dew
Point
Rel
Hum
%
Delta-T
°C
Wind Press
QNH
hPa
Press
MSL
hPa
Rain
since 9 am
mm
Dir
 
Spd
km/h
Gust
km/h
Spd
kts
Gust
kts
30/11:30pm 23.3 24.1 19.0 77 2.7 ENE 13 15 7 8 1016.4 1016.4 0.0
30/11:00pm 23.2 24.6 18.7 76 2.8 ENE 9 13 5 7 1016.4 1016.4 0.0
30/10:30pm 23.3 24.8 19.0 77 2.7 ENE 9 11 5 6 1016.4 1016.4 0.0
30/10:00pm 23.3 24.8 19.0 77 2.7 NE 9 13 5 7 1016.2 1016.2 0.0
30/09:30pm 23.4 24.1 18.9 76 2.9 NE 13 15 7 8 1015.9 1015.9 0.0
30/09:00pm 23.5 24.5 19.4 78 2.6 NE 13 15 7 8 1015.8 1015.8 0.0
30/08:30pm 23.2 24.0 19.1 78 2.6 NNE 13 17 7 9 1015.4 1015.4 0.0
30/08:00pm 23.2 23.6 18.9 77 2.7 NNE 15 19 8 10 1015.0 1015.0 0.0
30/07:30pm 23.2 23.8 18.5 75 3.0 NNE 13 17 7 9 1014.7 1014.7 0.0
30/07:00pm 23.1 23.9 18.2 74 3.1 N 11 15 6 8 1014.4 1014.4 0.0
30/06:30pm 23.3 23.9 18.6 75 3.0 NNE 13 17 7 9 1014.1 1014.1 0.0
30/06:00pm 23.4 23.3 18.7 75 3.0 NNE 17 20 9 11 1013.9 1013.9 0.0
30/05:30pm 23.5 23.3 18.4 73 3.2 NE 17 20 9 11 1013.6 1013.6 0.0
30/05:00pm 23.9 23.2 18.3 71 3.5 NE 19 20 10 11 1013.5 1013.5 0.0
30/04:30pm 24.0 23.1 18.2 70 3.6 NE 20 24 11 13 1013.4 1013.4 0.0
30/04:00pm 24.2 22.8 17.9 68 3.9 NNE 22 24 12 13 1013.3 1013.3 0.0
30/03:30pm 24.4 23.0 17.1 63 4.5 NNE 20 24 11 13 1013.5 1013.5 0.0
30/03:00pm 24.8 23.9 19.0 70 3.7 NNE 22 26 12 14 1013.7 1013.7 0.0
30/02:30pm 24.5 23.4 18.7 70 3.7 NE 22 26 12 14 1014.2 1014.2 0.0
30/02:00pm 24.8 24.2 18.5 68 4.0 NE 19 22 10 12 1014.8 1014.8 0.0
30/01:30pm 24.5 24.0 17.7 66 4.2 NE 17 22 9 12 1015.2 1015.2 0.0
30/01:00pm 25.0 24.5 18.7 68 4.0 NE 19 22 10 12 1015.7 1015.7 0.0
30/12:30pm 25.2 25.0 18.6 67 4.2 NE 17 20 9 11 1016.1 1016.1 0.0
30/12:00pm 24.7 24.5 18.4 68 4.0 ENE 17 22 9 12 1016.7 1016.7 0.0
30/11:30am 24.8 24.8 18.0 66 4.3 ENE 15 17 8 9 1017.3 1017.3 0.0
30/11:00am 23.8 24.3 18.4 72 3.4 NE 13 17 7 9 1017.8 1017.8 0.0
30/10:30am 23.9 24.8 18.5 72 3.4 ENE 11 15 6 8 1018.2 1018.2 0.0
30/10:00am 23.3 23.6 18.0 72 3.3 NNE 13 19 7 10 1018.4 1018.4 0.0
30/09:30am 25.5 26.8 19.2 68 4.0 ESE 11 17 6 9 1018.3 1018.3 0.0
30/09:00am 23.4 24.0 18.7 75 3.0 ESE 13 17 7 9 1018.1 1018.1 0.0
30/08:30am 22.5 25.2 19.5 83 1.9 SSE 4 7 2 4 1017.8 1017.8 0.0
30/08:00am 22.2 24.4 19.6 85 1.7 S 7 11 4 6 1017.7 1017.7 0.0
30/07:30am 20.5 22.7 19.3 93 0.8 SSW 6 7 3 4 1017.4 1017.4 0.0
30/07:00am 20.1 22.2 18.9 93 0.8 S 6 9 3 5 1017.1 1017.1 0.0
30/06:30am 19.8 21.5 18.6 93 0.7 S 7 9 4 5 1016.7 1016.7 0.0
30/06:00am 19.6 21.3 18.4 93 0.7 SSE 7 13 4 7 1016.3 1016.3 0.0
30/05:30am 19.4 20.5 18.1 92 0.8 S 9 13 5 7 1016.0 1016.0 0.0
30/05:00am 19.5 21.0 18.0 91 0.9 SSW 7 9 4 5 1015.8 1015.8 0.0
30/04:30am 20.1 21.7 17.9 87 1.4 SSW 6 9 3 5 1015.6 1015.6 0.0
30/04:00am 22.0 23.7 18.4 80 2.3 ENE 7 9 4 5 1015.6 1015.6 0.0
30/03:30am 22.4 23.9 19.0 81 2.2 E 9 13 5 7 1015.5 1015.5 0.0
30/03:00am 22.6 23.8 19.0 80 2.3 E 11 15 6 8 1015.6 1015.6 0.0
30/02:30am 22.7 23.1 18.9 79 2.4 ENE 15 19 8 10 1015.6 1015.6 0.0
30/02:00am 22.8 24.0 19.0 79 2.4 ENE 11 15 6 8 1016.0 1016.0 0.0
30/01:30am 22.9 23.2 18.7 77 2.7 NE 15 17 8 9 1016.3 1016.3 0.0
30/01:00am 22.9 22.9 18.9 78 2.5 NE 17 20 9 11 1016.4 1016.4 0.0
30/12:30am 22.8 22.8 19.0 79 2.4 NE 17 20 9 11 1016.5 1016.5 0.0
30/12:00am 22.8 22.4 19.0 79 2.4 NE 19 22 10 12 1016.8 1016.8 0.0
 
Date/Time
EST
Temp
°C
App
Temp
°C
Dew
Point
Rel
Hum
%
Delta-T
°C
Wind Press
QNH
hPa
Press
MSL
hPa
Rain
since 9 am
mm
Dir
 
Spd
km/h
Gust
km/h
Spd
kts
Gust
kts
29/11:30pm 22.9 22.6 19.1 79 2.4 ENE 19 22 10 12 1017.1 1017.1 0.0
29/11:00pm 22.8 22.9 19.2 80 2.3 NE 17 20 9 11 1017.2 1017.2 0.0
29/10:30pm 23.0 23.0 19.0 78 2.5 ENE 17 20 9 11 1017.3 1017.3 0.0

Other Formats:

Comma delimited format used in spreadsheet applications
http://www.bom.gov.au/fwo/IDQ60801/IDQ60801.95296.axf

JavaScript Object Notation format (JSON) in row-major order
http://www.bom.gov.au/fwo/IDQ60801/IDQ60801.95296.json